sensor_id;sensor_type;location;lat;lon;timestamp;temperature;humidity
8910;DHT22;4490;49.072;8.804;2023-04-25T00:01:40;9.90;99.90
8910;DHT22;4490;49.072;8.804;2023-04-25T00:04:06;9.90;99.90
8910;DHT22;4490;49.072;8.804;2023-04-25T00:06:34;9.90;99.90
8910;DHT22;4490;49.072;8.804;2023-04-25T00:09:02;9.90;99.90
8910;DHT22;4490;49.072;8.804;2023-04-25T00:11:28;9.90;99.90
8910;DHT22;4490;49.072;8.804;2023-04-25T00:13:56;9.90;99.90
8910;DHT22;4490;49.072;8.804;2023-04-25T00:16:22;9.90;99.90
8910;DHT22;4490;49.072;8.804;2023-04-25T00:18:49;10.00;99.90
8910;DHT22;4490;49.072;8.804;2023-04-25T00:21:18;9.90;99.90
8910;DHT22;4490;49.072;8.804;2023-04-25T00:23:43;9.90;99.90
8910;DHT22;4490;49.072;8.804;2023-04-25T00:26:10;10.00;99.90
8910;DHT22;4490;49.072;8.804;2023-04-25T00:28:37;10.00;99.90
8910;DHT22;4490;49.072;8.804;2023-04-25T00:31:03;10.00;99.90
8910;DHT22;4490;49.072;8.804;2023-04-25T00:33:29;9.90;99.90
8910;DHT22;4490;49.072;8.804;2023-04-25T00:35:55;9.90;99.90
8910;DHT22;4490;49.072;8.804;2023-04-25T00:38:21;9.90;99.90
8910;DHT22;4490;49.072;8.804;2023-04-25T00:40:47;9.90;99.90
8910;DHT22;4490;49.072;8.804;2023-04-25T00:43:13;9.90;99.90
8910;DHT22;4490;49.072;8.804;2023-04-25T00:45:39;9.90;99.90
8910;DHT22;4490;49.072;8.804;2023-04-25T00:48:05;9.90;99.90
8910;DHT22;4490;49.072;8.804;2023-04-25T00:50:35;9.90;99.90
8910;DHT22;4490;49.072;8.804;2023-04-25T00:53:01;9.80;99.90
8910;DHT22;4490;49.072;8.804;2023-04-25T00:55:27;9.80;99.90
8910;DHT22;4490;49.072;8.804;2023-04-25T00:57:53;9.80;99.90
8910;DHT22;4490;49.072;8.804;2023-04-25T01:00:20;9.80;99.90
8910;DHT22;4490;49.072;8.804;2023-04-25T01:02:46;9.90;99.90
8910;DHT22;4490;49.072;8.804;2023-04-25T01:05:12;9.80;99.90
8910;DHT22;4490;49.072;8.804;2023-04-25T01:07:38;9.80;99.90
8910;DHT22;4490;49.072;8.804;2023-04-25T01:10:05;9.90;99.90
8910;DHT22;4490;49.072;8.804;2023-04-25T01:12:31;9.90;99.90
8910;DHT22;4490;49.072;8.804;2023-04-25T01:14:57;9.90;99.90
8910;DHT22;4490;49.072;8.804;2023-04-25T01:17:23;9.90;99.90
8910;DHT22;4490;49.072;8.804;2023-04-25T01:19:49;9.90;99.90
8910;DHT22;4490;49.072;8.804;2023-04-25T01:22:16;9.90;99.90
8910;DHT22;4490;49.072;8.804;2023-04-25T01:24:42;9.90;99.90
8910;DHT22;4490;49.072;8.804;2023-04-25T01:27:08;9.90;99.90
8910;DHT22;4490;49.072;8.804;2023-04-25T01:29:35;9.90;99.90
8910;DHT22;4490;49.072;8.804;2023-04-25T01:32:01;9.90;99.90
8910;DHT22;4490;49.072;8.804;2023-04-25T01:34:27;9.90;99.90
8910;DHT22;4490;49.072;8.804;2023-04-25T01:36:53;9.80;99.90
8910;DHT22;4490;49.072;8.804;2023-04-25T01:39:19;9.80;99.90
8910;DHT22;4490;49.072;8.804;2023-04-25T01:41:46;9.80;99.90
8910;DHT22;4490;49.072;8.804;2023-04-25T01:44:13;9.80;99.90
8910;DHT22;4490;49.072;8.804;2023-04-25T01:46:39;9.90;99.90
8910;DHT22;4490;49.072;8.804;2023-04-25T01:49:04;9.90;99.90
8910;DHT22;4490;49.072;8.804;2023-04-25T01:51:30;9.90;99.90
8910;DHT22;4490;49.072;8.804;2023-04-25T01:53:57;9.90;99.90
8910;DHT22;4490;49.072;8.804;2023-04-25T01:56:23;9.80;99.90
8910;DHT22;4490;49.072;8.804;2023-04-25T01:58:49;9.80;99.90
8910;DHT22;4490;49.072;8.804;2023-04-25T02:01:14;9.80;99.90
8910;DHT22;4490;49.072;8.804;2023-04-25T02:03:40;9.80;99.90
8910;DHT22;4490;49.072;8.804;2023-04-25T02:06:06;9.80;99.90
8910;DHT22;4490;49.072;8.804;2023-04-25T02:08:31;9.80;99.90
8910;DHT22;4490;49.072;8.804;2023-04-25T02:10:57;9.80;99.90
8910;DHT22;4490;49.072;8.804;2023-04-25T02:13:23;9.80;99.90
8910;DHT22;4490;49.072;8.804;2023-04-25T02:15:49;9.80;99.90
8910;DHT22;4490;49.072;8.804;2023-04-25T02:18:14;9.80;99.90
8910;DHT22;4490;49.072;8.804;2023-04-25T02:20:42;9.80;99.90
8910;DHT22;4490;49.072;8.804;2023-04-25T02:23:08;9.80;99.90
8910;DHT22;4490;49.072;8.804;2023-04-25T02:25:33;9.80;99.90
8910;DHT22;4490;49.072;8.804;2023-04-25T02:27:59;9.80;99.90
8910;DHT22;4490;49.072;8.804;2023-04-25T02:30:24;9.80;99.90
8910;DHT22;4490;49.072;8.804;2023-04-25T02:32:50;9.80;99.90
8910;DHT22;4490;49.072;8.804;2023-04-25T02:35:16;9.80;99.90
8910;DHT22;4490;49.072;8.804;2023-04-25T02:37:42;9.80;99.90
8910;DHT22;4490;49.072;8.804;2023-04-25T02:40:08;9.80;99.90
8910;DHT22;4490;49.072;8.804;2023-04-25T02:42:34;9.80;99.90
8910;DHT22;4490;49.072;8.804;2023-04-25T02:44:59;9.80;99.90
8910;DHT22;4490;49.072;8.804;2023-04-25T02:47:25;9.80;99.90
8910;DHT22;4490;49.072;8.804;2023-04-25T02:49:51;9.80;99.90
8910;DHT22;4490;49.072;8.804;2023-04-25T02:52:17;9.70;99.90
8910;DHT22;4490;49.072;8.804;2023-04-25T02:54:42;9.70;99.90
8910;DHT22;4490;49.072;8.804;2023-04-25T02:57:08;9.70;99.90
8910;DHT22;4490;49.072;8.804;2023-04-25T02:59:34;9.70;99.90
8910;DHT22;4490;49.072;8.804;2023-04-25T03:02:00;9.70;99.90
8910;DHT22;4490;49.072;8.804;2023-04-25T03:04:26;9.70;99.90
8910;DHT22;4490;49.072;8.804;2023-04-25T03:06:52;9.70;99.90
8910;DHT22;4490;49.072;8.804;2023-04-25T03:09:18;9.60;99.90
8910;DHT22;4490;49.072;8.804;2023-04-25T03:11:44;9.60;99.90
8910;DHT22;4490;49.072;8.804;2023-04-25T03:14:11;9.60;99.90
8910;DHT22;4490;49.072;8.804;2023-04-25T03:16:37;9.50;99.90
8910;DHT22;4490;49.072;8.804;2023-04-25T03:19:03;9.50;99.90
8910;DHT22;4490;49.072;8.804;2023-04-25T03:21:30;9.50;99.90
8910;DHT22;4490;49.072;8.804;2023-04-25T03:24:00;9.50;99.90
8910;DHT22;4490;49.072;8.804;2023-04-25T03:26:27;9.50;99.90
8910;DHT22;4490;49.072;8.804;2023-04-25T03:28:53;9.50;99.90
8910;DHT22;4490;49.072;8.804;2023-04-25T03:31:18;9.50;99.90
8910;DHT22;4490;49.072;8.804;2023-04-25T03:33:44;9.50;99.90
8910;DHT22;4490;49.072;8.804;2023-04-25T03:36:09;9.50;99.90
8910;DHT22;4490;49.072;8.804;2023-04-25T03:38:35;9.40;99.90
8910;DHT22;4490;49.072;8.804;2023-04-25T03:41:01;9.40;99.90
8910;DHT22;4490;49.072;8.804;2023-04-25T03:43:27;9.40;99.90
8910;DHT22;4490;49.072;8.804;2023-04-25T03:45:52;9.30;99.90
8910;DHT22;4490;49.072;8.804;2023-04-25T03:48:18;9.30;99.90
8910;DHT22;4490;49.072;8.804;2023-04-25T03:50:47;9.30;99.90
8910;DHT22;4490;49.072;8.804;2023-04-25T03:53:12;9.30;99.90
8910;DHT22;4490;49.072;8.804;2023-04-25T03:55:38;9.20;99.90
8910;DHT22;4490;49.072;8.804;2023-04-25T03:58:03;9.10;99.90
8910;DHT22;4490;49.072;8.804;2023-04-25T04:00:29;9.10;99.90
8910;DHT22;4490;49.072;8.804;2023-04-25T04:02:54;9.10;99.90
8910;DHT22;4490;49.072;8.804;2023-04-25T04:05:21;9.00;99.90
8910;DHT22;4490;49.072;8.804;2023-04-25T04:07:47;9.00;99.90
8910;DHT22;4490;49.072;8.804;2023-04-25T04:10:13;9.00;99.90
8910;DHT22;4490;49.072;8.804;2023-04-25T04:12:38;8.90;99.90
8910;DHT22;4490;49.072;8.804;2023-04-25T04:15:05;8.90;99.90
8910;DHT22;4490;49.072;8.804;2023-04-25T04:17:31;8.90;99.90
8910;DHT22;4490;49.072;8.804;2023-04-25T04:19:57;8.90;99.90
8910;DHT22;4490;49.072;8.804;2023-04-25T04:22:23;8.90;99.90
8910;DHT22;4490;49.072;8.804;2023-04-25T04:24:49;8.90;99.90
8910;DHT22;4490;49.072;8.804;2023-04-25T04:27:16;8.90;99.90
8910;DHT22;4490;49.072;8.804;2023-04-25T04:29:43;8.80;99.90
8910;DHT22;4490;49.072;8.804;2023-04-25T04:32:09;8.80;99.90
8910;DHT22;4490;49.072;8.804;2023-04-25T04:34:35;8.70;99.90
8910;DHT22;4490;49.072;8.804;2023-04-25T04:37:01;8.70;99.90
8910;DHT22;4490;49.072;8.804;2023-04-25T04:39:26;8.70;99.90
8910;DHT22;4490;49.072;8.804;2023-04-25T04:41:52;8.70;99.90
8910;DHT22;4490;49.072;8.804;2023-04-25T04:44:18;8.70;99.90
8910;DHT22;4490;49.072;8.804;2023-04-25T04:46:44;8.70;99.90
8910;DHT22;4490;49.072;8.804;2023-04-25T04:49:10;8.70;99.90
8910;DHT22;4490;49.072;8.804;2023-04-25T04:51:37;8.70;99.90
8910;DHT22;4490;49.072;8.804;2023-04-25T04:54:03;8.80;99.90
8910;DHT22;4490;49.072;8.804;2023-04-25T04:56:30;8.80;99.90
8910;DHT22;4490;49.072;8.804;2023-04-25T04:58:59;8.80;99.90
8910;DHT22;4490;49.072;8.804;2023-04-25T05:01:25;8.80;99.90
8910;DHT22;4490;49.072;8.804;2023-04-25T05:03:51;8.90;99.90
8910;DHT22;4490;49.072;8.804;2023-04-25T05:06:18;8.90;99.90
8910;DHT22;4490;49.072;8.804;2023-04-25T05:08:44;8.90;99.90
8910;DHT22;4490;49.072;8.804;2023-04-25T05:11:10;8.90;99.90
8910;DHT22;4490;49.072;8.804;2023-04-25T05:13:36;8.90;99.90
8910;DHT22;4490;49.072;8.804;2023-04-25T05:16:02;8.90;99.90
8910;DHT22;4490;49.072;8.804;2023-04-25T05:18:27;9.00;99.90
8910;DHT22;4490;49.072;8.804;2023-04-25T05:20:53;9.00;99.90
8910;DHT22;4490;49.072;8.804;2023-04-25T05:23:19;9.10;99.90
8910;DHT22;4490;49.072;8.804;2023-04-25T05:25:45;9.10;99.90
8910;DHT22;4490;49.072;8.804;2023-04-25T05:28:13;9.10;99.90
8910;DHT22;4490;49.072;8.804;2023-04-25T05:30:39;9.10;99.90
8910;DHT22;4490;49.072;8.804;2023-04-25T05:33:05;9.20;99.90
8910;DHT22;4490;49.072;8.804;2023-04-25T05:35:31;9.20;99.90
8910;DHT22;4490;49.072;8.804;2023-04-25T05:37:56;9.30;99.90
8910;DHT22;4490;49.072;8.804;2023-04-25T05:40:22;9.40;99.90
8910;DHT22;4490;49.072;8.804;2023-04-25T05:42:47;9.40;99.90
8910;DHT22;4490;49.072;8.804;2023-04-25T05:45:13;9.50;99.90
8910;DHT22;4490;49.072;8.804;2023-04-25T05:47:39;9.50;99.90
8910;DHT22;4490;49.072;8.804;2023-04-25T05:50:05;9.60;99.90
8910;DHT22;4490;49.072;8.804;2023-04-25T05:52:31;9.60;99.90
8910;DHT22;4490;49.072;8.804;2023-04-25T05:54:57;9.70;99.90
8910;DHT22;4490;49.072;8.804;2023-04-25T05:57:24;9.70;99.90
8910;DHT22;4490;49.072;8.804;2023-04-25T05:59:51;9.80;99.90
8910;DHT22;4490;49.072;8.804;2023-04-25T06:02:18;9.80;99.90
8910;DHT22;4490;49.072;8.804;2023-04-25T06:04:43;9.90;99.90
8910;DHT22;4490;49.072;8.804;2023-04-25T06:07:09;9.90;99.90
8910;DHT22;4490;49.072;8.804;2023-04-25T06:09:35;10.00;99.90
8910;DHT22;4490;49.072;8.804;2023-04-25T06:12:00;10.00;99.90
8910;DHT22;4490;49.072;8.804;2023-04-25T06:14:27;10.10;99.90
8910;DHT22;4490;49.072;8.804;2023-04-25T06:16:52;10.20;99.90
8910;DHT22;4490;49.072;8.804;2023-04-25T06:19:18;10.30;99.90
8910;DHT22;4490;49.072;8.804;2023-04-25T06:21:44;10.40;99.90
8910;DHT22;4490;49.072;8.804;2023-04-25T06:24:10;10.50;99.90
8910;DHT22;4490;49.072;8.804;2023-04-25T06:26:35;10.60;99.90
8910;DHT22;4490;49.072;8.804;2023-04-25T06:29:01;10.60;99.90
8910;DHT22;4490;49.072;8.804;2023-04-25T06:31:27;10.70;99.90
8910;DHT22;4490;49.072;8.804;2023-04-25T06:33:54;10.70;99.90
8910;DHT22;4490;49.072;8.804;2023-04-25T06:36:23;10.70;99.90
8910;DHT22;4490;49.072;8.804;2023-04-25T06:38:53;10.70;99.90
8910;DHT22;4490;49.072;8.804;2023-04-25T06:41:20;10.70;99.90
8910;DHT22;4490;49.072;8.804;2023-04-25T06:43:46;10.70;99.90
8910;DHT22;4490;49.072;8.804;2023-04-25T06:46:12;10.70;99.90
8910;DHT22;4490;49.072;8.804;2023-04-25T06:48:37;10.70;99.90
8910;DHT22;4490;49.072;8.804;2023-04-25T06:51:03;10.70;99.90
8910;DHT22;4490;49.072;8.804;2023-04-25T06:53:29;10.70;99.90
8910;DHT22;4490;49.072;8.804;2023-04-25T06:55:54;10.70;99.90
8910;DHT22;4490;49.072;8.804;2023-04-25T06:58:20;10.70;99.90
8910;DHT22;4490;49.072;8.804;2023-04-25T07:00:46;10.70;99.90
8910;DHT22;4490;49.072;8.804;2023-04-25T07:03:11;10.70;99.90
8910;DHT22;4490;49.072;8.804;2023-04-25T07:05:37;10.60;99.90
8910;DHT22;4490;49.072;8.804;2023-04-25T07:08:03;10.60;99.90
8910;DHT22;4490;49.072;8.804;2023-04-25T07:10:29;10.60;99.90
8910;DHT22;4490;49.072;8.804;2023-04-25T07:12:55;10.60;99.90
8910;DHT22;4490;49.072;8.804;2023-04-25T07:15:20;10.60;99.90
8910;DHT22;4490;49.072;8.804;2023-04-25T07:17:46;10.60;99.90
8910;DHT22;4490;49.072;8.804;2023-04-25T07:20:11;10.60;99.90
8910;DHT22;4490;49.072;8.804;2023-04-25T07:22:37;10.60;99.90
8910;DHT22;4490;49.072;8.804;2023-04-25T07:25:03;10.60;99.90
8910;DHT22;4490;49.072;8.804;2023-04-25T07:27:30;10.60;99.90
8910;DHT22;4490;49.072;8.804;2023-04-25T07:29:55;10.60;99.90
8910;DHT22;4490;49.072;8.804;2023-04-25T07:32:21;10.60;99.90
8910;DHT22;4490;49.072;8.804;2023-04-25T07:34:47;10.60;99.90
8910;DHT22;4490;49.072;8.804;2023-04-25T07:37:12;10.60;99.90
8910;DHT22;4490;49.072;8.804;2023-04-25T07:39:39;10.60;99.90
8910;DHT22;4490;49.072;8.804;2023-04-25T07:42:05;10.60;99.90
8910;DHT22;4490;49.072;8.804;2023-04-25T07:44:33;10.70;99.90
8910;DHT22;4490;49.072;8.804;2023-04-25T07:47:07;10.70;99.90
8910;DHT22;4490;49.072;8.804;2023-04-25T07:49:34;10.70;99.90
8910;DHT22;4490;49.072;8.804;2023-04-25T07:52:00;10.80;99.90
8910;DHT22;4490;49.072;8.804;2023-04-25T07:54:26;10.80;99.90
8910;DHT22;4490;49.072;8.804;2023-04-25T07:56:52;10.80;99.90
8910;DHT22;4490;49.072;8.804;2023-04-25T07:59:17;10.80;99.90
8910;DHT22;4490;49.072;8.804;2023-04-25T08:01:43;10.80;99.90
8910;DHT22;4490;49.072;8.804;2023-04-25T08:04:08;10.80;99.90
8910;DHT22;4490;49.072;8.804;2023-04-25T08:06:34;10.80;99.90
8910;DHT22;4490;49.072;8.804;2023-04-25T08:09:02;10.80;99.90
8910;DHT22;4490;49.072;8.804;2023-04-25T08:11:28;10.80;99.90
8910;DHT22;4490;49.072;8.804;2023-04-25T08:13:54;10.80;99.90
8910;DHT22;4490;49.072;8.804;2023-04-25T08:16:19;10.80;99.90
8910;DHT22;4490;49.072;8.804;2023-04-25T08:18:45;10.80;99.90
8910;DHT22;4490;49.072;8.804;2023-04-25T08:21:10;10.90;99.90
8910;DHT22;4490;49.072;8.804;2023-04-25T08:23:37;10.90;99.90
8910;DHT22;4490;49.072;8.804;2023-04-25T08:26:05;10.90;99.90
8910;DHT22;4490;49.072;8.804;2023-04-25T08:28:31;10.90;99.90
8910;DHT22;4490;49.072;8.804;2023-04-25T08:30:57;10.90;99.90
8910;DHT22;4490;49.072;8.804;2023-04-25T08:33:22;10.90;99.90
8910;DHT22;4490;49.072;8.804;2023-04-25T08:35:48;10.80;99.90
8910;DHT22;4490;49.072;8.804;2023-04-25T08:38:14;10.80;99.90
8910;DHT22;4490;49.072;8.804;2023-04-25T08:40:40;10.80;99.90
8910;DHT22;4490;49.072;8.804;2023-04-25T08:43:06;10.80;99.90
8910;DHT22;4490;49.072;8.804;2023-04-25T08:45:39;10.80;99.90
8910;DHT22;4490;49.072;8.804;2023-04-25T08:48:10;10.80;99.90
8910;DHT22;4490;49.072;8.804;2023-04-25T08:50:50;10.80;99.90
8910;DHT22;4490;49.072;8.804;2023-04-25T08:53:17;10.80;99.90
8910;DHT22;4490;49.072;8.804;2023-04-25T08:55:46;10.80;99.90
8910;DHT22;4490;49.072;8.804;2023-04-25T08:58:14;10.80;99.90
8910;DHT22;4490;49.072;8.804;2023-04-25T09:00:40;10.80;99.90
8910;DHT22;4490;49.072;8.804;2023-04-25T09:03:05;10.80;99.90
8910;DHT22;4490;49.072;8.804;2023-04-25T09:05:32;10.80;99.90
8910;DHT22;4490;49.072;8.804;2023-04-25T09:07:58;10.80;99.90
8910;DHT22;4490;49.072;8.804;2023-04-25T09:10:26;10.80;99.90
8910;DHT22;4490;49.072;8.804;2023-04-25T09:13:25;10.80;99.90
8910;DHT22;4490;49.072;8.804;2023-04-25T09:15:57;10.70;99.90
8910;DHT22;4490;49.072;8.804;2023-04-25T09:18:33;10.60;99.90
8910;DHT22;4490;49.072;8.804;2023-04-25T09:21:06;10.40;99.90
8910;DHT22;4490;49.072;8.804;2023-04-25T09:23:43;10.30;99.90
8910;DHT22;4490;49.072;8.804;2023-04-25T09:26:09;10.20;99.90
8910;DHT22;4490;49.072;8.804;2023-04-25T09:28:35;10.10;99.90
8910;DHT22;4490;49.072;8.804;2023-04-25T09:31:01;10.10;99.90
8910;DHT22;4490;49.072;8.804;2023-04-25T09:33:32;10.00;99.90
8910;DHT22;4490;49.072;8.804;2023-04-25T09:36:06;9.90;99.90
8910;DHT22;4490;49.072;8.804;2023-04-25T09:38:39;9.90;99.90
8910;DHT22;4490;49.072;8.804;2023-04-25T09:41:06;9.80;99.90
8910;DHT22;4490;49.072;8.804;2023-04-25T09:43:32;9.80;99.90
8910;DHT22;4490;49.072;8.804;2023-04-25T09:45:58;9.80;99.90
8910;DHT22;4490;49.072;8.804;2023-04-25T09:48:25;9.80;99.90
8910;DHT22;4490;49.072;8.804;2023-04-25T09:51:11;9.80;99.90
8910;DHT22;4490;49.072;8.804;2023-04-25T09:53:40;9.80;99.90
8910;DHT22;4490;49.072;8.804;2023-04-25T09:56:08;9.80;99.90
8910;DHT22;4490;49.072;8.804;2023-04-25T09:58:36;9.80;99.90
8910;DHT22;4490;49.072;8.804;2023-04-25T10:01:04;9.80;99.90
8910;DHT22;4490;49.072;8.804;2023-04-25T10:03:32;9.80;99.90
8910;DHT22;4490;49.072;8.804;2023-04-25T10:06:08;9.80;99.90
8910;DHT22;4490;49.072;8.804;2023-04-25T10:08:36;9.90;99.90
8910;DHT22;4490;49.072;8.804;2023-04-25T10:11:04;9.90;99.90
8910;DHT22;4490;49.072;8.804;2023-04-25T10:13:31;9.90;99.90
8910;DHT22;4490;49.072;8.804;2023-04-25T10:16:04;10.00;99.90
8910;DHT22;4490;49.072;8.804;2023-04-25T10:18:31;10.00;99.90
8910;DHT22;4490;49.072;8.804;2023-04-25T10:21:01;10.00;99.90
8910;DHT22;4490;49.072;8.804;2023-04-25T10:23:29;10.10;99.90
8910;DHT22;4490;49.072;8.804;2023-04-25T10:25:55;10.10;99.90
8910;DHT22;4490;49.072;8.804;2023-04-25T10:28:21;10.20;99.90
8910;DHT22;4490;49.072;8.804;2023-04-25T10:31:01;10.30;99.90
8910;DHT22;4490;49.072;8.804;2023-04-25T10:33:39;10.40;99.90
8910;DHT22;4490;49.072;8.804;2023-04-25T10:36:14;10.50;99.90
8910;DHT22;4490;49.072;8.804;2023-04-25T10:38:42;10.50;99.90
8910;DHT22;4490;49.072;8.804;2023-04-25T10:41:09;10.50;99.90
8910;DHT22;4490;49.072;8.804;2023-04-25T10:43:45;10.50;99.90
8910;DHT22;4490;49.072;8.804;2023-04-25T10:46:41;10.50;99.90
8910;DHT22;4490;49.072;8.804;2023-04-25T10:49:08;10.40;99.90
8910;DHT22;4490;49.072;8.804;2023-04-25T10:51:36;10.30;99.90
8910;DHT22;4490;49.072;8.804;2023-04-25T10:54:04;10.40;99.90
8910;DHT22;4490;49.072;8.804;2023-04-25T10:56:41;10.30;99.90
8910;DHT22;4490;49.072;8.804;2023-04-25T10:59:16;10.30;99.90
8910;DHT22;4490;49.072;8.804;2023-04-25T11:01:51;10.30;99.90
8910;DHT22;4490;49.072;8.804;2023-04-25T11:04:35;10.30;99.90
8910;DHT22;4490;49.072;8.804;2023-04-25T11:09:36;10.30;99.90
8910;DHT22;4490;49.072;8.804;2023-04-25T11:12:03;10.20;99.90
8910;DHT22;4490;49.072;8.804;2023-04-25T11:14:30;10.20;99.90
8910;DHT22;4490;49.072;8.804;2023-04-25T11:16:57;10.20;99.90
8910;DHT22;4490;49.072;8.804;2023-04-25T11:19:24;10.20;99.90
8910;DHT22;4490;49.072;8.804;2023-04-25T11:21:50;10.20;99.90
8910;DHT22;4490;49.072;8.804;2023-04-25T11:24:18;10.20;99.90
8910;DHT22;4490;49.072;8.804;2023-04-25T11:26:47;10.20;99.90
8910;DHT22;4490;49.072;8.804;2023-04-25T11:29:13;10.10;99.90
8910;DHT22;4490;49.072;8.804;2023-04-25T11:31:43;10.10;99.90
8910;DHT22;4490;49.072;8.804;2023-04-25T11:34:10;10.10;99.90
8910;DHT22;4490;49.072;8.804;2023-04-25T11:36:38;10.20;99.90
8910;DHT22;4490;49.072;8.804;2023-04-25T11:39:04;10.20;99.90
8910;DHT22;4490;49.072;8.804;2023-04-25T11:41:31;10.20;99.90
8910;DHT22;4490;49.072;8.804;2023-04-25T11:43:57;10.30;99.90
8910;DHT22;4490;49.072;8.804;2023-04-25T11:46:22;10.30;99.90
8910;DHT22;4490;49.072;8.804;2023-04-25T11:48:48;10.30;99.90
8910;DHT22;4490;49.072;8.804;2023-04-25T11:51:15;10.30;99.90
8910;DHT22;4490;49.072;8.804;2023-04-25T11:53:42;10.30;99.90
8910;DHT22;4490;49.072;8.804;2023-04-25T11:56:10;10.30;99.90
8910;DHT22;4490;49.072;8.804;2023-04-25T11:59:02;10.30;99.90
8910;DHT22;4490;49.072;8.804;2023-04-25T12:01:30;10.30;99.90
8910;DHT22;4490;49.072;8.804;2023-04-25T12:03:56;10.20;99.90
8910;DHT22;4490;49.072;8.804;2023-04-25T12:06:29;10.30;99.90
8910;DHT22;4490;49.072;8.804;2023-04-25T12:09:04;10.40;99.90
8910;DHT22;4490;49.072;8.804;2023-04-25T12:11:31;10.60;99.90
8910;DHT22;4490;49.072;8.804;2023-04-25T12:14:03;10.80;99.90
8910;DHT22;4490;49.072;8.804;2023-04-25T12:16:30;10.90;99.90
8910;DHT22;4490;49.072;8.804;2023-04-25T12:19:04;11.00;99.90
8910;DHT22;4490;49.072;8.804;2023-04-25T12:21:30;11.10;99.90
8910;DHT22;4490;49.072;8.804;2023-04-25T12:24:15;11.20;99.90
8910;DHT22;4490;49.072;8.804;2023-04-25T12:27:00;11.20;99.90
8910;DHT22;4490;49.072;8.804;2023-04-25T12:29:28;11.40;99.90
8910;DHT22;4490;49.072;8.804;2023-04-25T12:31:56;11.50;99.90
8910;DHT22;4490;49.072;8.804;2023-04-25T12:34:23;11.60;99.90
8910;DHT22;4490;49.072;8.804;2023-04-25T12:36:49;11.60;99.90
8910;DHT22;4490;49.072;8.804;2023-04-25T12:39:23;11.70;99.90
8910;DHT22;4490;49.072;8.804;2023-04-25T12:41:50;11.70;99.90
8910;DHT22;4490;49.072;8.804;2023-04-25T12:44:17;11.80;99.90
8910;DHT22;4490;49.072;8.804;2023-04-25T12:46:43;11.90;99.90
8910;DHT22;4490;49.072;8.804;2023-04-25T12:49:09;12.10;99.90
8910;DHT22;4490;49.072;8.804;2023-04-25T12:51:35;12.20;99.90
8910;DHT22;4490;49.072;8.804;2023-04-25T12:54:02;12.30;99.90
8910;DHT22;4490;49.072;8.804;2023-04-25T12:56:28;12.40;99.90
8910;DHT22;4490;49.072;8.804;2023-04-25T12:58:54;12.40;99.90
8910;DHT22;4490;49.072;8.804;2023-04-25T13:01:20;12.50;99.90
8910;DHT22;4490;49.072;8.804;2023-04-25T13:03:46;12.70;99.90
8910;DHT22;4490;49.072;8.804;2023-04-25T13:06:13;12.80;99.90
8910;DHT22;4490;49.072;8.804;2023-04-25T13:08:39;13.10;99.90
8910;DHT22;4490;49.072;8.804;2023-04-25T13:11:06;13.30;99.90
8910;DHT22;4490;49.072;8.804;2023-04-25T13:13:32;13.40;99.90
8910;DHT22;4490;49.072;8.804;2023-04-25T13:16:03;13.50;99.90
8910;DHT22;4490;49.072;8.804;2023-04-25T13:18:29;13.60;99.90
8910;DHT22;4490;49.072;8.804;2023-04-25T13:20:55;13.60;99.90
8910;DHT22;4490;49.072;8.804;2023-04-25T13:23:21;13.50;99.90
8910;DHT22;4490;49.072;8.804;2023-04-25T13:25:47;13.40;99.90
8910;DHT22;4490;49.072;8.804;2023-04-25T13:28:13;13.20;99.90
8910;DHT22;4490;49.072;8.804;2023-04-25T13:30:40;13.00;99.90
8910;DHT22;4490;49.072;8.804;2023-04-25T13:33:05;12.80;99.90
8910;DHT22;4490;49.072;8.804;2023-04-25T13:35:33;12.70;99.90
8910;DHT22;4490;49.072;8.804;2023-04-25T13:37:59;12.50;99.90
8910;DHT22;4490;49.072;8.804;2023-04-25T13:40:25;12.50;99.90
8910;DHT22;4490;49.072;8.804;2023-04-25T13:42:52;12.50;99.90
8910;DHT22;4490;49.072;8.804;2023-04-25T13:45:18;12.40;99.90
8910;DHT22;4490;49.072;8.804;2023-04-25T13:47:43;12.40;99.90
8910;DHT22;4490;49.072;8.804;2023-04-25T13:50:09;12.30;99.90
8910;DHT22;4490;49.072;8.804;2023-04-25T13:52:35;12.30;99.90
8910;DHT22;4490;49.072;8.804;2023-04-25T13:55:01;12.30;99.90
8910;DHT22;4490;49.072;8.804;2023-04-25T13:57:30;12.30;99.90
8910;DHT22;4490;49.072;8.804;2023-04-25T13:59:55;12.30;99.90
8910;DHT22;4490;49.072;8.804;2023-04-25T14:02:21;12.40;99.90
8910;DHT22;4490;49.072;8.804;2023-04-25T14:04:47;12.50;99.90
8910;DHT22;4490;49.072;8.804;2023-04-25T14:07:13;12.50;99.90
8910;DHT22;4490;49.072;8.804;2023-04-25T14:09:41;12.60;99.90
8910;DHT22;4490;49.072;8.804;2023-04-25T14:12:07;12.70;99.90
8910;DHT22;4490;49.072;8.804;2023-04-25T14:14:33;12.70;99.90
8910;DHT22;4490;49.072;8.804;2023-04-25T14:16:58;12.80;99.90
8910;DHT22;4490;49.072;8.804;2023-04-25T14:19:24;12.80;99.90
8910;DHT22;4490;49.072;8.804;2023-04-25T14:21:50;12.90;99.90
8910;DHT22;4490;49.072;8.804;2023-04-25T14:24:16;12.80;99.90
8910;DHT22;4490;49.072;8.804;2023-04-25T14:26:42;12.90;99.90
8910;DHT22;4490;49.072;8.804;2023-04-25T14:29:10;13.10;99.90
8910;DHT22;4490;49.072;8.804;2023-04-25T14:31:37;13.30;99.90
8910;DHT22;4490;49.072;8.804;2023-04-25T14:34:04;13.60;99.60
8910;DHT22;4490;49.072;8.804;2023-04-25T14:36:31;13.70;96.90
8910;DHT22;4490;49.072;8.804;2023-04-25T14:38:57;13.90;95.00
8910;DHT22;4490;49.072;8.804;2023-04-25T14:41:23;13.90;95.60
8910;DHT22;4490;49.072;8.804;2023-04-25T14:43:49;13.90;93.90
8910;DHT22;4490;49.072;8.804;2023-04-25T14:46:14;13.90;92.90
8910;DHT22;4490;49.072;8.804;2023-04-25T14:48:40;13.80;93.70
8910;DHT22;4490;49.072;8.804;2023-04-25T14:51:06;13.80;93.30
8910;DHT22;4490;49.072;8.804;2023-04-25T14:53:32;13.80;94.00
8910;DHT22;4490;49.072;8.804;2023-04-25T14:55:58;13.80;91.90
8910;DHT22;4490;49.072;8.804;2023-04-25T14:58:23;13.80;92.50
8910;DHT22;4490;49.072;8.804;2023-04-25T15:00:49;13.70;92.70
8910;DHT22;4490;49.072;8.804;2023-04-25T15:03:16;13.70;92.90
8910;DHT22;4490;49.072;8.804;2023-04-25T15:05:42;13.70;92.50
8910;DHT22;4490;49.072;8.804;2023-04-25T15:08:08;13.70;92.60
8910;DHT22;4490;49.072;8.804;2023-04-25T15:10:34;13.60;91.30
8910;DHT22;4490;49.072;8.804;2023-04-25T15:13:00;13.50;90.90
8910;DHT22;4490;49.072;8.804;2023-04-25T15:15:26;13.40;91.00
8910;DHT22;4490;49.072;8.804;2023-04-25T15:17:52;13.30;90.70
8910;DHT22;4490;49.072;8.804;2023-04-25T15:20:19;13.30;91.30
8910;DHT22;4490;49.072;8.804;2023-04-25T15:22:44;13.20;91.80
8910;DHT22;4490;49.072;8.804;2023-04-25T15:25:11;13.10;92.10
8910;DHT22;4490;49.072;8.804;2023-04-25T15:27:38;13.10;91.50
8910;DHT22;4490;49.072;8.804;2023-04-25T15:30:07;13.10;91.40
8910;DHT22;4490;49.072;8.804;2023-04-25T15:32:34;13.00;91.80
8910;DHT22;4490;49.072;8.804;2023-04-25T15:35:04;13.00;92.70
8910;DHT22;4490;49.072;8.804;2023-04-25T15:37:31;13.00;92.20
8910;DHT22;4490;49.072;8.804;2023-04-25T15:40:08;13.00;91.80
8910;DHT22;4490;49.072;8.804;2023-04-25T15:42:37;13.00;92.00
8910;DHT22;4490;49.072;8.804;2023-04-25T15:45:05;13.00;92.30
8910;DHT22;4490;49.072;8.804;2023-04-25T15:47:31;13.00;92.60
8910;DHT22;4490;49.072;8.804;2023-04-25T15:49:58;13.00;92.10
8910;DHT22;4490;49.072;8.804;2023-04-25T15:52:23;13.00;92.00
8910;DHT22;4490;49.072;8.804;2023-04-25T15:54:49;12.90;91.40
8910;DHT22;4490;49.072;8.804;2023-04-25T15:57:15;12.90;91.60
8910;DHT22;4490;49.072;8.804;2023-04-25T15:59:40;12.90;92.00
8910;DHT22;4490;49.072;8.804;2023-04-25T16:02:06;12.80;92.50
8910;DHT22;4490;49.072;8.804;2023-04-25T16:04:33;12.70;92.50
8910;DHT22;4490;49.072;8.804;2023-04-25T16:07:00;12.70;92.60
8910;DHT22;4490;49.072;8.804;2023-04-25T16:09:28;12.60;93.10